createdAt,value
2019-02-17T00:01:52.574Z,98161.78
2019-02-17T00:06:48.799Z,98164.36
2019-02-17T00:11:46.894Z,98159.29
2019-02-17T00:16:42.887Z,98158.00
2019-02-17T00:21:38.783Z,98147.53
2019-02-17T00:26:35.603Z,98149.65
2019-02-17T00:31:31.666Z,98151.97
2019-02-17T00:36:30.683Z,98163.16
2019-02-17T00:41:26.547Z,98167.62
2019-02-17T00:46:22.413Z,98167.23
2019-02-17T00:51:18.396Z,98176.95
2019-02-17T00:56:14.256Z,98179.17
2019-02-17T01:01:12.042Z,98172.63
2019-02-17T01:06:08.475Z,98179.48
2019-02-17T01:11:04.537Z,98178.98
2019-02-17T01:16:00.516Z,98181.55
2019-02-17T01:20:56.392Z,98177.00
2019-02-17T01:25:52.411Z,98170.75
2019-02-17T01:30:48.346Z,98171.91
2019-02-17T01:35:44.246Z,98165.67
2019-02-17T01:40:40.154Z,98172.20
2019-02-17T01:45:36.136Z,98158.06
2019-02-17T01:50:32.059Z,98161.05
2019-02-17T01:55:28.529Z,98163.27
2019-02-17T02:00:25.928Z,98165.44
2019-02-17T02:05:21.931Z,98162.41
2019-02-17T02:10:17.869Z,98167.41
2019-02-17T02:15:14.103Z,98162.08
2019-02-17T02:20:17.527Z,98161.92
2019-02-17T02:25:13.880Z,98153.37
2019-02-17T02:30:14.992Z,98155.03
2019-02-17T02:35:10.919Z,98144.21
2019-02-17T02:40:07.413Z,98147.05
2019-02-17T02:45:03.368Z,98148.05
2019-02-17T02:49:59.280Z,98143.91
2019-02-17T02:54:55.677Z,98141.27
2019-02-17T02:59:52.667Z,98141.63
2019-02-17T03:04:48.779Z,98141.31
2019-02-17T03:09:44.918Z,98145.53
2019-02-17T03:14:40.793Z,98141.22
2019-02-17T03:19:36.671Z,98144.38
2019-02-17T03:24:32.844Z,98144.02
2019-02-17T03:29:29.013Z,98144.27
2019-02-17T03:34:24.890Z,98141.93
2019-02-17T03:39:20.693Z,98141.77
2019-02-17T03:44:16.756Z,98136.88
2019-02-17T03:49:12.608Z,98142.92
2019-02-17T03:54:08.528Z,98138.60
2019-02-17T03:59:07.828Z,98144.73
2019-02-17T04:04:06.292Z,98137.28
2019-02-17T04:09:02.371Z,98145.88
2019-02-17T04:13:58.782Z,98149.45
2019-02-17T04:18:54.897Z,98148.67
2019-02-17T04:23:50.911Z,98143.88
2019-02-17T04:28:46.865Z,98148.54
2019-02-17T04:33:44.960Z,98149.16
2019-02-17T04:38:40.834Z,98148.14
2019-02-17T04:43:36.746Z,98145.53
2019-02-17T04:48:33.031Z,98140.73
2019-02-17T04:53:32.026Z,98148.45
2019-02-17T04:58:28.134Z,98144.36
2019-02-17T05:03:24.243Z,98151.23
2019-02-17T05:08:21.266Z,98152.23
2019-02-17T05:13:20.425Z,98145.39
2019-02-17T05:18:17.661Z,98147.47
2019-02-17T05:23:13.647Z,98140.91
2019-02-17T05:28:11.885Z,98140.95
2019-02-17T05:33:07.828Z,98144.33
2019-02-17T05:38:03.737Z,98139.55
2019-02-17T05:42:59.661Z,98133.17
2019-02-17T05:47:55.543Z,98144.11
2019-02-17T05:52:51.411Z,98140.73
2019-02-17T05:57:47.459Z,98146.03
2019-02-17T06:03:04.658Z,98152.94
2019-02-17T06:08:05.661Z,98146.05
2019-02-17T06:13:01.529Z,98150.22
2019-02-17T06:17:57.504Z,98154.35
2019-02-17T06:23:22.814Z,98154.72
2019-02-17T06:28:21.291Z,98153.92
2019-02-17T06:33:17.231Z,98156.27
2019-02-17T06:38:13.151Z,98157.54
2019-02-17T06:43:09.375Z,98161.38
2019-02-17T06:48:05.248Z,98162.56
2019-02-17T06:53:01.139Z,98165.50
2019-02-17T06:57:57.245Z,98165.84
2019-02-17T07:02:53.244Z,98169.70
2019-02-17T07:07:49.139Z,98169.56
2019-02-17T07:12:45.026Z,98166.07
2019-02-17T07:17:40.904Z,98162.23
2019-02-17T07:22:36.810Z,98166.09
2019-02-17T07:27:32.728Z,98169.58
2019-02-17T07:32:28.749Z,98161.91
2019-02-17T07:37:33.133Z,98155.81
2019-02-17T07:42:22.550Z,98160.46
2019-02-17T07:47:18.517Z,98162.23
2019-02-17T07:52:14.505Z,98161.45
2019-02-17T07:57:10.550Z,98158.44
2019-02-17T08:02:06.976Z,98163.25
2019-02-17T08:07:02.867Z,98166.31
2019-02-17T08:12:29.146Z,98154.91
2019-02-17T08:17:48.654Z,98163.19
2019-02-17T08:23:14.561Z,98163.19
2019-02-17T08:28:17.465Z,98158.17
2019-02-17T08:33:13.213Z,98149.50
2019-02-17T08:38:23.356Z,98144.59
2019-02-17T08:43:19.344Z,98142.96
2019-02-17T08:48:27.970Z,98140.76
2019-02-17T08:53:23.948Z,98139.48
2019-02-17T08:58:19.888Z,98138.75
2019-02-17T09:03:16.033Z,98133.66
2019-02-17T09:08:12.463Z,98131.45
2019-02-17T09:13:08.503Z,98121.23
2019-02-17T09:18:04.982Z,98128.15
2019-02-17T09:23:02.847Z,98121.00
2019-02-17T09:28:00.450Z,98116.56
2019-02-17T09:32:56.521Z,98117.97
2019-02-17T09:37:52.712Z,98112.84
2019-02-17T09:42:48.645Z,98114.19
2019-02-17T09:47:44.465Z,98109.91
2019-02-17T09:52:40.696Z,98105.03
2019-02-17T09:57:36.793Z,98104.49
2019-02-17T10:02:32.913Z,98100.41
2019-02-17T10:07:28.824Z,98099.53
2019-02-17T10:12:24.920Z,98096.96
2019-02-17T10:17:21.067Z,98100.91
2019-02-17T10:22:18.537Z,98093.59
2019-02-17T10:27:14.587Z,98098.98
2019-02-17T10:32:10.468Z,98096.28
2019-02-17T10:37:06.537Z,98090.83
2019-02-17T10:42:02.465Z,98091.22
2019-02-17T10:46:58.489Z,98088.61
2019-02-17T10:51:54.640Z,98079.61
2019-02-17T10:56:52.486Z,98079.86
2019-02-17T11:01:48.001Z,98062.94
2019-02-17T11:06:46.871Z,98055.27
2019-02-17T11:11:42.952Z,98049.93
2019-02-17T11:16:39.457Z,98042.04
2019-02-17T11:21:35.648Z,98033.41
2019-02-17T11:26:31.588Z,98030.44
2019-02-17T11:31:27.670Z,98023.48
2019-02-17T11:36:23.724Z,98017.67
2019-02-17T11:41:19.518Z,98009.81
2019-02-17T11:46:15.372Z,98005.49
2019-02-17T11:51:11.540Z,97999.09
2019-02-17T11:56:07.382Z,97994.86
2019-02-17T12:01:05.298Z,97987.48
2019-02-17T12:06:00.747Z,97978.00
2019-02-17T12:11:02.932Z,97967.14
2019-02-17T12:15:58.811Z,97963.28
2019-02-17T12:21:10.482Z,97958.52
2019-02-17T12:26:35.637Z,97957.58
2019-02-17T12:31:35.711Z,97950.25
2019-02-17T12:36:35.846Z,97937.38
2019-02-17T12:41:33.220Z,97930.59
2019-02-17T12:46:29.092Z,97932.51
2019-02-17T12:51:25.277Z,97924.02
2019-02-17T12:56:21.345Z,97919.31
2019-02-17T13:01:17.489Z,97917.67
2019-02-17T13:06:34.085Z,97911.42
2019-02-17T13:11:35.678Z,97899.47
2019-02-17T13:22:35.420Z,97881.05
2019-02-17T13:33:25.983Z,97862.31
2019-02-17T13:38:37.073Z,97852.80
2019-02-17T13:49:34.028Z,97844.95
2019-02-17T13:54:35.924Z,97838.28
2019-02-17T14:04:48.074Z,97834.52
2019-02-17T14:09:45.529Z,97827.55
2019-02-17T14:14:41.520Z,97821.23
2019-02-17T14:19:37.300Z,97819.31
2019-02-17T14:24:33.137Z,97818.80
2019-02-17T14:29:28.887Z,97806.13
2019-02-17T14:34:26.290Z,97808.81
2019-02-17T14:39:22.096Z,97797.95
2019-02-17T14:44:17.922Z,97794.88
2019-02-17T14:49:13.863Z,97792.41
2019-02-17T14:54:13.628Z,97782.70
2019-02-17T14:59:09.450Z,97781.28
2019-02-17T15:04:08.776Z,97784.36
2019-02-17T15:09:03.085Z,97779.16
2019-02-17T15:13:58.868Z,97773.59
2019-02-17T15:18:54.706Z,97766.28
2019-02-17T15:23:52.225Z,97760.08
2019-02-17T15:28:51.246Z,97767.52
2019-02-17T15:33:45.880Z,97751.99
2019-02-17T15:38:41.809Z,97752.25
2019-02-17T15:43:37.681Z,97750.95
2019-02-17T15:48:33.645Z,97753.17
2019-02-17T15:53:31.074Z,97757.38
2019-02-17T15:58:28.790Z,97749.55
2019-02-17T16:03:26.267Z,97746.14
2019-02-17T16:08:22.293Z,97741.67
2019-02-17T16:13:18.234Z,97735.04
2019-02-17T16:18:14.183Z,97729.24
2019-02-17T16:23:10.029Z,97737.00
2019-02-17T16:28:09.040Z,97734.58
2019-02-17T16:33:05.083Z,97734.63
2019-02-17T16:38:01.262Z,97736.02
2019-02-17T16:42:57.325Z,97734.58
2019-02-17T16:47:53.409Z,97738.17
2019-02-17T16:53:02.979Z,97743.36
2019-02-17T16:57:59.157Z,97747.25
2019-02-17T17:02:55.235Z,97751.56
2019-02-17T17:07:51.571Z,97745.41
2019-02-17T17:12:47.449Z,97738.45
2019-02-17T17:17:43.363Z,97746.06
2019-02-17T17:22:39.545Z,97756.09
2019-02-17T17:27:35.443Z,97755.90
2019-02-17T17:32:36.861Z,97758.61
2019-02-17T17:37:33.122Z,97765.72
2019-02-17T17:42:29.243Z,97765.81
2019-02-17T17:47:25.247Z,97757.89
2019-02-17T17:52:28.098Z,97758.63
2019-02-17T17:57:24.254Z,97761.16
2019-02-17T18:02:20.245Z,97774.19
2019-02-17T18:07:16.167Z,97783.03
2019-02-17T18:12:12.335Z,97785.93
2019-02-17T18:17:08.324Z,97781.56
2019-02-17T18:22:04.540Z,97790.87
2019-02-17T18:27:00.474Z,97793.37
2019-02-17T18:31:57.008Z,97782.46
2019-02-17T18:36:53.597Z,97782.40
2019-02-17T18:41:53.698Z,97782.87
2019-02-17T18:46:51.059Z,97792.63
2019-02-17T18:51:47.075Z,97783.95
2019-02-17T18:56:43.101Z,97787.39
2019-02-17T19:01:39.080Z,97789.42
2019-02-17T19:06:35.051Z,97789.02
2019-02-17T19:11:31.156Z,97794.20
2019-02-17T19:16:27.225Z,97783.39
2019-02-17T19:21:27.271Z,97789.36
2019-02-17T19:26:22.844Z,97787.80
2019-02-17T19:31:18.845Z,97791.06
2019-02-17T19:36:15.281Z,97789.09
2019-02-17T19:41:11.468Z,97785.34
2019-02-17T19:46:10.016Z,97787.78
2019-02-17T19:51:06.169Z,97793.23
2019-02-17T19:56:02.249Z,97790.37
2019-02-17T20:00:58.260Z,97788.48
2019-02-17T20:06:02.474Z,97789.38
2019-02-17T20:10:58.588Z,97786.87
2019-02-17T20:15:54.736Z,97788.16
2019-02-17T20:20:50.932Z,97786.59
2019-02-17T20:25:46.949Z,97788.67
2019-02-17T20:30:43.126Z,97790.37
2019-02-17T20:35:39.176Z,97795.31
2019-02-17T20:40:35.549Z,97798.39
2019-02-17T20:45:31.735Z,97798.52
2019-02-17T20:50:27.794Z,97803.23
2019-02-17T20:55:26.523Z,97802.39
2019-02-17T21:00:24.747Z,97799.36
2019-02-17T21:05:20.958Z,97801.20
2019-02-17T21:10:17.287Z,97806.25
2019-02-17T21:15:13.810Z,97809.28
2019-02-17T21:20:10.122Z,97818.12
2019-02-17T21:25:06.436Z,97820.20
2019-02-17T21:30:02.382Z,97814.94
2019-02-17T21:34:58.449Z,97809.93
2019-02-17T21:39:54.366Z,97802.38
2019-02-17T21:44:50.265Z,97808.28
2019-02-17T21:49:46.336Z,97812.94
2019-02-17T22:00:10.221Z,97816.42
2019-02-17T22:05:06.420Z,97814.83
2019-02-17T22:10:04.355Z,97814.43
2019-02-17T22:15:34.146Z,97806.34
2019-02-17T22:20:30.027Z,97808.26
2019-02-17T22:25:26.034Z,97802.56
2019-02-17T22:30:22.093Z,97802.80
2019-02-17T22:35:18.043Z,97795.64
2019-02-17T22:40:14.350Z,97789.66
2019-02-17T22:45:10.754Z,97782.02
2019-02-17T22:50:07.692Z,97780.86
2019-02-17T22:55:03.740Z,97787.31
2019-02-17T22:59:59.836Z,97785.13
2019-02-17T23:04:55.778Z,97783.28
2019-02-17T23:09:51.741Z,97781.31
2019-02-17T23:14:47.654Z,97783.09
2019-02-17T23:19:43.682Z,97780.92
2019-02-17T23:24:42.500Z,97781.01
2019-02-17T23:29:38.346Z,97782.58
2019-02-17T23:34:36.986Z,97789.69
2019-02-17T23:39:32.896Z,97785.06
2019-02-17T23:44:28.882Z,97787.81
2019-02-17T23:49:27.805Z,97785.69
2019-02-17T23:54:23.763Z,97777.87
2019-02-17T23:59:20.995Z,97777.64
